Caviahue Airport


Codes: SAHE/CVH
Name: Caviahue Airport
City: Lafontaine
Country: Argentina
Elevation: 5435 ft.

Photos at Caviahue Airport


   Photos courtesy of SpottingLog. You can add your own sightings and photos by signing up for a free trial today.



No photos found.

Weather at Caviahue Airport


Time (UTC)DescriptionTempratureWindCloud coverageVisibilityPressureHumidity
19-Apr-2024 03:00Scattered Clouds6°C13 mph, NW36%10000m1012hPa79%
19-Apr-2024 06:00Light Rain6°C13 mph, W43%4464m1012hPa84%
19-Apr-2024 09:00Light Rain6°C13 mph, W63%3200m1013hPa91%
19-Apr-2024 12:00Light Rain5°C13 mph, N78%0m1015hPa95%
19-Apr-2024 15:00Broken Clouds7°C16 mph, W79%10000m1015hPa77%
19-Apr-2024 18:00Scattered Clouds11°C18 mph, W50%10000m1013hPa46%
19-Apr-2024 21:00Broken Clouds7°C16 mph, W62%10000m1014hPa66%
20-Apr-2024 00:00Broken Clouds4°C11 mph, W56%10000m1018hPa96%
20-Apr-2024 03:00Broken Clouds3°C11 mph, W80%10000m1018hPa87%
20-Apr-2024 06:00Broken Clouds3°C9 mph, W76%10000m1017hPa82%
20-Apr-2024 09:00Scattered Clouds2°C7 mph, W36%10000m1016hPa81%
20-Apr-2024 12:00Scattered Clouds4°C7 mph, W44%10000m1016hPa74%
20-Apr-2024 15:00Overcast Clouds9°C9 mph, W100%10000m1014hPa44%
20-Apr-2024 18:00Overcast Clouds12°C13 mph, W89%10000m1012hPa32%
20-Apr-2024 21:00Scattered Clouds9°C11 mph, W35%10000m1013hPa42%
21-Apr-2024 00:00Scattered Clouds4°C9 mph, W28%10000m1017hPa70%
21-Apr-2024 03:00Few Clouds3°C9 mph, W20%10000m1018hPa69%
21-Apr-2024 06:00Few Clouds3°C4 mph, W13%10000m1017hPa66%
21-Apr-2024 09:00Broken Clouds2°C2 mph, E72%10000m1016hPa59%
21-Apr-2024 12:00Broken Clouds3°C7 mph, E65%10000m1019hPa53%
21-Apr-2024 15:00Few Clouds7°C7 mph, E14%10000m1016hPa52%
21-Apr-2024 18:00Scattered Clouds8°C4 mph, SE38%10000m1014hPa54%
21-Apr-2024 21:00Light Rain5°C9 mph, SE100%10000m1016hPa83%
22-Apr-2024 00:00Light Rain4°C2 mph, E100%10000m1018hPa90%
22-Apr-2024 03:00Light Rain4°C2 mph, S100%140m1018hPa97%
22-Apr-2024 06:00Snow3°C4 mph, W100%71m1019hPa98%
22-Apr-2024 09:00Light Snow2°C7 mph, W100%239m1020hPa97%
22-Apr-2024 12:00Light Snow1°C9 mph, W100%2946m1021hPa92%
22-Apr-2024 15:00Overcast Clouds3°C11 mph, W90%7105m1021hPa82%
22-Apr-2024 18:00Overcast Clouds7°C11 mph, W95%10000m1017hPa62%
22-Apr-2024 21:00Overcast Clouds6°C9 mph, W100%10000m1016hPa64%
23-Apr-2024 00:00Overcast Clouds3°C7 mph, W95%10000m1018hPa85%
23-Apr-2024 03:00Overcast Clouds2°C7 mph, W91%10000m1019hPa86%
23-Apr-2024 06:00Overcast Clouds1°C9 mph, W87%10000m1020hPa96%
23-Apr-2024 09:00Broken Clouds1°C9 mph, W78%5609m1020hPa96%
23-Apr-2024 12:00Broken Clouds0°C7 mph, W66%10000m1021hPa93%
23-Apr-2024 15:00Clear Sky7°C9 mph, W8%10000m1018hPa33%
23-Apr-2024 18:00Scattered Clouds9°C9 mph, W50%10000m1017hPa26%
23-Apr-2024 21:00Overcast Clouds8°C7 mph, W100%10000m1017hPa28%
24-Apr-2024 00:00Overcast Clouds5°C7 mph, W100%10000m1018hPa39%